createdAt,value
2022-07-28T00:00:49.162Z,24.45
2022-07-28T00:01:49.204Z,24.42
2022-07-28T00:02:49.212Z,24.43
2022-07-28T00:03:49.381Z,24.32
2022-07-28T00:04:49.164Z,24.45
2022-07-28T00:05:49.893Z,24.32
2022-07-28T00:06:49.172Z,24.34
2022-07-28T00:07:49.177Z,24.28
2022-07-28T00:08:49.176Z,24.27
2022-07-28T00:09:49.182Z,24.31
2022-07-28T00:10:49.173Z,24.42
2022-07-28T00:11:54.590Z,24.40
2022-07-28T00:12:49.177Z,24.42
2022-07-28T00:13:49.178Z,24.24
2022-07-28T00:14:49.178Z,24.42
2022-07-28T00:15:49.239Z,24.39
2022-07-28T00:16:49.299Z,24.46
2022-07-28T00:17:49.181Z,24.46
2022-07-28T00:18:49.187Z,24.43
2022-07-28T00:19:49.189Z,24.40
2022-07-28T00:20:49.181Z,24.35
2022-07-28T00:21:49.187Z,24.39
2022-07-28T00:22:49.189Z,24.31
2022-07-28T00:23:49.181Z,24.45
2022-07-28T00:24:49.323Z,24.34
2022-07-28T00:25:49.188Z,24.31
2022-07-28T00:26:49.182Z,24.34
2022-07-28T00:27:49.198Z,24.34
2022-07-28T00:28:49.190Z,24.24
2022-07-28T00:29:50.996Z,24.40
2022-07-28T00:30:49.195Z,24.24
2022-07-28T00:31:49.271Z,24.30
2022-07-28T00:32:49.199Z,24.30
2022-07-28T00:33:49.189Z,24.31
2022-07-28T00:34:49.196Z,24.37
2022-07-28T00:35:49.198Z,24.27
2022-07-28T00:36:49.200Z,24.37
2022-07-28T00:37:49.250Z,24.31
2022-07-28T00:38:49.209Z,24.30
2022-07-28T00:39:49.205Z,24.34
2022-07-28T00:40:49.196Z,24.28
2022-07-28T00:41:49.206Z,24.24
2022-07-28T00:42:49.219Z,24.27
2022-07-28T00:43:49.199Z,24.28
2022-07-28T00:44:49.207Z,24.27
2022-07-28T00:45:49.203Z,24.32
2022-07-28T00:46:49.262Z,24.31
2022-07-28T00:47:49.207Z,24.25
2022-07-28T00:48:49.302Z,24.31
2022-07-28T00:49:49.214Z,24.24
2022-07-28T00:50:49.207Z,24.31
2022-07-28T00:51:49.216Z,24.31
2022-07-28T00:52:49.217Z,24.25
2022-07-28T00:53:49.206Z,24.28
2022-07-28T00:54:49.217Z,24.28
2022-07-28T00:56:05.548Z,24.31
2022-07-28T00:56:49.219Z,24.30
2022-07-28T00:57:49.220Z,24.31
2022-07-28T00:58:49.225Z,24.31
2022-07-28T00:59:49.224Z,24.27
2022-07-28T01:00:49.233Z,24.22
2022-07-28T01:01:49.362Z,24.25
2022-07-28T01:02:49.328Z,24.21
2022-07-28T01:03:49.224Z,24.22
2022-07-28T01:04:49.232Z,24.31
2022-07-28T01:05:49.231Z,24.31
2022-07-28T01:06:49.221Z,24.24
2022-07-28T01:07:49.233Z,24.24
2022-07-28T01:08:49.238Z,24.21
2022-07-28T01:09:49.232Z,24.20
2022-07-28T01:10:49.226Z,24.22
2022-07-28T01:11:49.231Z,24.15
2022-07-28T01:12:49.231Z,24.30
2022-07-28T01:13:49.243Z,24.21
2022-07-28T01:14:49.238Z,24.31
2022-07-28T01:15:49.279Z,24.28
2022-07-28T01:16:49.245Z,24.22
2022-07-28T01:17:49.229Z,24.27
2022-07-28T01:18:49.233Z,24.25
2022-07-28T01:19:49.232Z,24.27
2022-07-28T01:20:49.245Z,24.13
2022-07-28T01:21:49.246Z,24.15
2022-07-28T01:22:49.235Z,24.27
2022-07-28T01:23:49.242Z,24.20
2022-07-28T01:24:49.241Z,24.18
2022-07-28T01:25:49.247Z,24.16
2022-07-28T01:26:49.244Z,24.24
2022-07-28T01:27:49.248Z,24.16
2022-07-28T01:28:49.252Z,24.21
2022-07-28T01:29:49.244Z,24.16
2022-07-28T01:30:49.283Z,24.20
2022-07-28T01:31:49.245Z,24.13
2022-07-28T01:32:49.256Z,24.20
2022-07-28T01:33:49.251Z,24.22
2022-07-28T01:34:49.256Z,24.05
2022-07-28T01:35:49.244Z,24.18
2022-07-28T01:36:49.253Z,24.06
2022-07-28T01:37:49.260Z,24.16
2022-07-28T01:38:49.270Z,24.20
2022-07-28T01:39:49.262Z,24.16
2022-07-28T01:40:50.390Z,24.16
2022-07-28T01:41:49.255Z,24.12
2022-07-28T01:42:49.256Z,24.09
2022-07-28T01:43:49.256Z,24.08
2022-07-28T01:44:49.273Z,24.20
2022-07-28T01:45:49.263Z,24.06
2022-07-28T01:46:49.343Z,24.09
2022-07-28T01:47:49.278Z,24.08
2022-07-28T01:48:49.413Z,24.05
2022-07-28T01:49:49.271Z,24.12
2022-07-28T01:50:49.280Z,24.02
2022-07-28T01:51:49.259Z,24.09
2022-07-28T01:52:49.262Z,24.10
2022-07-28T01:53:49.272Z,24.08
2022-07-28T01:55:31.138Z,24.12
2022-07-28T01:56:31.140Z,24.10
2022-07-28T01:57:31.150Z,24.20
2022-07-28T01:58:31.147Z,24.06
2022-07-28T01:59:31.859Z,24.09
2022-07-28T02:00:31.139Z,24.08
2022-07-28T02:01:31.222Z,24.16
2022-07-28T02:02:31.148Z,23.94
2022-07-28T02:03:31.154Z,24.10
2022-07-28T02:04:31.243Z,24.10
2022-07-28T02:05:31.213Z,24.10
2022-07-28T02:06:31.151Z,23.94
2022-07-28T02:07:31.156Z,24.02
2022-07-28T02:08:31.159Z,24.02
2022-07-28T02:09:31.149Z,24.09
2022-07-28T02:10:31.158Z,24.05
2022-07-28T02:11:31.159Z,24.08
2022-07-28T02:12:31.176Z,24.10
2022-07-28T02:13:31.168Z,24.06
2022-07-28T02:14:31.163Z,24.06
2022-07-28T02:15:31.237Z,24.08
2022-07-28T02:16:31.157Z,24.03
2022-07-28T02:17:31.170Z,24.06
2022-07-28T02:18:31.166Z,24.08
2022-07-28T02:19:31.201Z,24.09
2022-07-28T02:20:31.157Z,23.95
2022-07-28T02:21:31.205Z,24.05
2022-07-28T02:22:31.178Z,24.05
2022-07-28T02:23:31.164Z,24.05
2022-07-28T02:24:31.170Z,23.97
2022-07-28T02:25:31.169Z,24.03
2022-07-28T02:26:31.164Z,24.05
2022-07-28T02:27:31.170Z,24.03
2022-07-28T02:28:31.188Z,24.08
2022-07-28T02:29:50.127Z,24.02
2022-07-28T02:30:31.181Z,24.05
2022-07-28T02:31:31.233Z,24.05
2022-07-28T02:32:31.175Z,24.02
2022-07-28T02:33:58.719Z,24.06
2022-07-28T02:34:31.177Z,24.03
2022-07-28T02:35:32.027Z,24.00
2022-07-28T02:36:31.265Z,24.08
2022-07-28T02:37:31.177Z,23.95
2022-07-28T02:38:31.182Z,24.03
2022-07-28T02:39:31.175Z,24.02
2022-07-28T02:40:31.187Z,23.98
2022-07-28T02:41:31.182Z,24.05
2022-07-28T02:42:31.185Z,23.91
2022-07-28T02:43:50.098Z,24.02
2022-07-28T02:44:31.180Z,23.93
2022-07-28T02:45:31.187Z,23.91
2022-07-28T02:46:31.215Z,24.05
2022-07-28T02:47:31.180Z,24.03
2022-07-28T02:48:31.189Z,23.93
2022-07-28T02:49:31.190Z,23.93
2022-07-28T02:50:31.215Z,23.98
2022-07-28T02:51:31.199Z,24.02
2022-07-28T02:52:31.198Z,23.93
2022-07-28T02:53:31.189Z,23.91
2022-07-28T02:54:31.196Z,23.95
2022-07-28T02:55:31.193Z,23.98
2022-07-28T02:56:31.189Z,23.95
2022-07-28T02:57:31.203Z,23.91
2022-07-28T02:58:31.198Z,24.00
2022-07-28T02:59:31.191Z,23.91
2022-07-28T03:00:31.204Z,23.93
2022-07-28T03:01:31.252Z,23.91
2022-07-28T03:02:31.201Z,23.91
2022-07-28T03:03:31.212Z,23.95
2022-07-28T03:04:31.197Z,23.91
2022-07-28T03:05:31.296Z,23.95
2022-07-28T03:06:31.205Z,23.95
2022-07-28T03:07:31.201Z,23.95
2022-07-28T03:08:31.206Z,23.97
2022-07-28T03:09:31.212Z,23.95
2022-07-28T03:10:33.753Z,23.91
2022-07-28T03:11:31.212Z,23.91
2022-07-28T03:12:31.214Z,24.00
2022-07-28T03:13:31.235Z,23.87
2022-07-28T03:14:31.200Z,23.93
2022-07-28T03:15:31.355Z,23.85
2022-07-28T03:16:31.297Z,23.91
2022-07-28T03:17:31.218Z,23.91
2022-07-28T03:18:31.218Z,23.87
2022-07-28T03:19:31.220Z,23.88
2022-07-28T03:20:31.220Z,23.94
2022-07-28T03:21:31.215Z,23.88
2022-07-28T03:22:31.225Z,23.90
2022-07-28T03:23:31.229Z,23.90
2022-07-28T03:24:31.219Z,23.95
2022-07-28T03:25:31.221Z,23.93
2022-07-28T03:26:31.213Z,23.94
2022-07-28T03:27:31.231Z,23.90
2022-07-28T03:28:31.220Z,23.93
2022-07-28T03:29:31.217Z,23.94
2022-07-28T03:30:31.251Z,23.90
2022-07-28T03:31:31.215Z,23.87
2022-07-28T03:32:31.224Z,23.93
2022-07-28T03:33:31.226Z,23.85
2022-07-28T03:34:31.222Z,23.87
2022-07-28T03:35:31.330Z,23.91
2022-07-28T03:36:31.249Z,23.97
2022-07-28T03:37:31.224Z,23.90
2022-07-28T03:38:31.236Z,23.94
2022-07-28T03:39:32.454Z,23.90
2022-07-28T03:40:31.237Z,23.94
2022-07-28T03:41:31.231Z,23.88
2022-07-28T03:42:31.225Z,23.90
2022-07-28T03:43:31.239Z,23.98
2022-07-28T03:44:31.265Z,23.90
2022-07-28T03:45:31.237Z,23.90
2022-07-28T03:46:31.290Z,23.90
2022-07-28T03:47:31.235Z,23.87
2022-07-28T03:48:31.229Z,23.83
2022-07-28T03:49:31.237Z,23.85
2022-07-28T03:50:31.236Z,23.94
2022-07-28T03:51:31.234Z,23.83
2022-07-28T03:52:31.242Z,23.83
2022-07-28T03:53:31.241Z,23.84
2022-07-28T03:54:31.245Z,23.88
2022-07-28T03:55:31.248Z,23.91
2022-07-28T03:56:31.249Z,23.95
2022-07-28T03:57:31.238Z,23.95
2022-07-28T03:58:31.251Z,23.83
2022-07-28T03:59:31.244Z,23.85
2022-07-28T04:00:31.257Z,23.87
2022-07-28T04:01:31.338Z,23.93
2022-07-28T04:02:31.271Z,23.91
2022-07-28T04:03:43.019Z,23.83
2022-07-28T04:04:31.256Z,23.83
2022-07-28T04:05:31.254Z,23.91
2022-07-28T04:06:31.247Z,23.84
2022-07-28T04:07:31.254Z,23.80
2022-07-28T04:08:31.253Z,23.85
2022-07-28T04:09:31.260Z,23.85
2022-07-28T04:10:31.258Z,23.90
2022-07-28T04:11:31.255Z,23.90
2022-07-28T04:12:31.269Z,23.85
2022-07-28T04:13:31.257Z,23.87
2022-07-28T04:14:31.266Z,23.83
2022-07-28T04:15:31.256Z,23.88
2022-07-28T04:16:31.329Z,23.85
2022-07-28T04:17:31.256Z,23.84
2022-07-28T04:18:31.267Z,23.87
2022-07-28T04:19:31.256Z,23.90
2022-07-28T04:20:31.261Z,23.88
2022-07-28T04:21:31.262Z,23.87
2022-07-28T04:22:31.265Z,23.85
2022-07-28T04:23:31.263Z,23.80
2022-07-28T04:24:31.274Z,23.88
2022-07-28T04:25:31.267Z,23.87
2022-07-28T04:26:31.269Z,23.79
2022-07-28T04:27:31.273Z,23.90
2022-07-28T04:28:31.262Z,23.88
2022-07-28T04:29:31.272Z,23.90
2022-07-28T04:30:31.319Z,23.87
2022-07-28T04:31:31.487Z,23.87
2022-07-28T04:32:31.272Z,23.84
2022-07-28T04:33:31.275Z,23.87
2022-07-28T04:34:31.283Z,23.85
2022-07-28T04:35:31.287Z,23.79
2022-07-28T04:36:31.298Z,23.79
2022-07-28T04:37:32.344Z,23.83
2022-07-28T04:38:31.275Z,23.76
2022-07-28T04:39:31.277Z,23.80
2022-07-28T04:40:31.282Z,23.85
2022-07-28T04:41:31.285Z,23.79
2022-07-28T04:42:31.276Z,23.85
2022-07-28T04:43:31.276Z,23.80
2022-07-28T04:44:31.305Z,23.78
2022-07-28T04:45:31.341Z,23.79
2022-07-28T04:46:31.329Z,23.78
2022-07-28T04:47:31.278Z,23.83
2022-07-28T04:48:31.280Z,23.87
2022-07-28T04:49:31.284Z,23.95
2022-07-28T04:50:31.291Z,23.87
2022-07-28T04:51:31.289Z,23.76
2022-07-28T04:52:31.293Z,23.88
2022-07-28T04:53:31.282Z,23.79
2022-07-28T04:54:31.295Z,23.91
2022-07-28T04:55:31.291Z,23.95
2022-07-28T04:56:31.295Z,23.90
2022-07-28T04:57:31.292Z,23.93
2022-07-28T04:58:31.306Z,23.87
2022-07-28T04:59:31.297Z,23.88
2022-07-28T05:00:31.298Z,23.94
2022-07-28T05:01:31.348Z,23.84
2022-07-28T05:02:31.308Z,23.91
2022-07-28T05:03:36.037Z,23.87
2022-07-28T05:04:31.358Z,23.84
2022-07-28T05:05:31.294Z,23.85
2022-07-28T05:06:31.296Z,23.85
2022-07-28T05:07:31.296Z,23.85
2022-07-28T05:08:31.308Z,23.90
2022-07-28T05:09:31.307Z,23.85
2022-07-28T05:10:31.310Z,23.83
2022-07-28T05:11:31.302Z,23.95
2022-07-28T05:12:31.305Z,23.84
2022-07-28T05:13:33.988Z,23.90
2022-07-28T05:14:31.299Z,23.94
2022-07-28T05:15:31.317Z,23.94
2022-07-28T05:16:31.361Z,23.93
2022-07-28T05:17:31.305Z,23.93
2022-07-28T05:18:31.313Z,23.90
2022-07-28T05:19:31.318Z,23.90
2022-07-28T05:20:31.321Z,23.87
2022-07-28T05:21:31.306Z,23.93
2022-07-28T05:22:31.315Z,23.88
2022-07-28T05:23:31.308Z,24.00
2022-07-28T05:24:31.323Z,23.95
2022-07-28T05:25:31.319Z,23.95
2022-07-28T05:26:31.334Z,23.91
2022-07-28T05:27:31.315Z,23.90
2022-07-28T05:28:31.327Z,23.90
2022-07-28T05:29:42.484Z,23.88
2022-07-28T05:30:31.315Z,23.85
2022-07-28T05:31:31.375Z,23.94
2022-07-28T05:32:31.328Z,23.88
2022-07-28T05:33:31.985Z,23.94
2022-07-28T05:34:31.331Z,23.94
2022-07-28T05:35:31.317Z,23.90
2022-07-28T05:36:31.334Z,23.88
2022-07-28T05:37:31.329Z,23.91
2022-07-28T05:38:31.336Z,23.90
2022-07-28T05:39:31.329Z,23.91
2022-07-28T05:40:31.325Z,23.94
2022-07-28T05:41:31.328Z,23.93
2022-07-28T05:42:31.330Z,23.90
2022-07-28T05:43:31.341Z,24.00
2022-07-28T05:44:37.232Z,23.98
2022-07-28T05:45:31.385Z,23.93
2022-07-28T05:46:31.335Z,23.98
2022-07-28T05:47:31.337Z,23.98
2022-07-28T05:48:31.350Z,23.98
2022-07-28T05:49:31.345Z,23.88
2022-07-28T05:50:31.342Z,23.91
2022-07-28T05:51:31.344Z,23.90
2022-07-28T05:52:31.360Z,23.91
2022-07-28T05:53:31.336Z,23.93
2022-07-28T05:54:31.345Z,24.02
2022-07-28T05:55:31.341Z,23.93
2022-07-28T05:56:31.338Z,23.93
2022-07-28T05:57:31.354Z,23.94
2022-07-28T05:58:31.353Z,23.94
2022-07-28T05:59:31.350Z,24.08
2022-07-28T06:00:31.359Z,24.05
2022-07-28T06:01:31.402Z,24.03
2022-07-28T06:02:31.428Z,23.97
2022-07-28T06:03:31.344Z,24.05
2022-07-28T06:04:34.525Z,24.00
2022-07-28T06:05:31.347Z,24.08
2022-07-28T06:07:13.231Z,24.05
2022-07-28T06:08:13.228Z,24.05
2022-07-28T06:09:13.222Z,24.12
2022-07-28T06:10:13.232Z,24.12
2022-07-28T06:11:22.300Z,24.09
2022-07-28T06:12:13.229Z,24.15
2022-07-28T06:13:13.232Z,24.08
2022-07-28T06:14:13.440Z,24.09
2022-07-28T06:15:13.239Z,24.20
2022-07-28T06:16:13.519Z,24.09
2022-07-28T06:17:13.243Z,24.18
2022-07-28T06:18:13.234Z,24.09
2022-07-28T06:19:13.244Z,24.21
2022-07-28T06:20:13.242Z,24.18
2022-07-28T06:21:13.236Z,24.22
2022-07-28T06:22:13.253Z,24.22
2022-07-28T06:23:13.244Z,24.16
2022-07-28T06:24:13.555Z,24.24
2022-07-28T06:25:13.249Z,24.21
2022-07-28T06:26:13.271Z,24.21
2022-07-28T06:27:13.248Z,24.24
2022-07-28T06:28:13.244Z,24.13
2022-07-28T06:29:13.256Z,24.27
2022-07-28T06:30:13.242Z,24.16
2022-07-28T06:31:13.352Z,24.27
2022-07-28T06:32:13.259Z,24.30
2022-07-28T06:33:17.165Z,24.31
2022-07-28T06:34:13.553Z,24.28
2022-07-28T06:35:13.268Z,24.28
2022-07-28T06:36:13.262Z,24.27
2022-07-28T06:37:13.261Z,24.35
2022-07-28T06:38:13.254Z,24.35
2022-07-28T06:39:13.262Z,24.25
2022-07-28T06:40:13.274Z,24.28
2022-07-28T06:41:13.259Z,24.32
2022-07-28T06:42:13.264Z,24.35
2022-07-28T06:43:13.270Z,24.31
2022-07-28T06:44:13.718Z,24.27
2022-07-28T06:45:19.648Z,24.28
2022-07-28T06:46:13.271Z,24.35
2022-07-28T06:47:13.308Z,24.37
2022-07-28T06:48:13.273Z,24.31
2022-07-28T06:49:13.717Z,24.32
2022-07-28T06:50:24.576Z,24.42
2022-07-28T06:51:13.273Z,24.31
2022-07-28T06:52:13.289Z,24.37
2022-07-28T06:53:13.291Z,24.45
2022-07-28T06:54:13.614Z,24.40
2022-07-28T06:55:13.281Z,24.39
2022-07-28T06:56:13.842Z,24.43
2022-07-28T06:57:13.285Z,24.32
2022-07-28T06:58:13.285Z,24.43
2022-07-28T06:59:13.674Z,24.40
2022-07-28T07:00:13.290Z,24.28
2022-07-28T07:01:13.374Z,24.37
2022-07-28T07:02:13.286Z,24.30
2022-07-28T07:03:13.289Z,24.35
2022-07-28T07:04:13.456Z,24.35
2022-07-28T07:05:13.301Z,24.31
2022-07-28T07:06:13.299Z,24.30
2022-07-28T07:07:16.859Z,24.40
2022-07-28T07:08:13.292Z,24.34
2022-07-28T07:09:13.302Z,24.39
2022-07-28T07:10:13.309Z,24.39
2022-07-28T07:11:13.314Z,24.46
2022-07-28T07:12:13.305Z,24.45
2022-07-28T07:13:13.919Z,24.47
2022-07-28T07:14:13.837Z,24.45
2022-07-28T07:15:13.302Z,24.52
2022-07-28T07:16:13.366Z,24.64
2022-07-28T07:17:13.311Z,24.60
2022-07-28T07:18:13.306Z,24.52
2022-07-28T07:19:15.855Z,24.62
2022-07-28T07:20:13.312Z,24.65
2022-07-28T07:21:13.317Z,24.71
2022-07-28T07:22:13.315Z,24.73
2022-07-28T07:23:13.327Z,24.77
2022-07-28T07:24:13.658Z,24.81
2022-07-28T07:25:13.334Z,24.80
2022-07-28T07:26:13.312Z,24.90
2022-07-28T07:27:13.325Z,24.78
2022-07-28T07:28:13.332Z,24.84
2022-07-28T07:29:13.335Z,24.95
2022-07-28T07:30:13.329Z,24.96
2022-07-28T07:31:13.377Z,24.96
2022-07-28T07:32:13.335Z,25.03
2022-07-28T07:33:13.327Z,25.03
2022-07-28T07:34:13.652Z,25.10
2022-07-28T07:35:13.338Z,25.08
2022-07-28T07:36:13.329Z,25.14
2022-07-28T07:37:13.348Z,25.18
2022-07-28T07:38:13.334Z,25.20
2022-07-28T07:39:13.347Z,25.18
2022-07-28T07:40:13.344Z,25.20
2022-07-28T07:41:13.357Z,25.27
2022-07-28T07:42:13.346Z,25.28
2022-07-28T07:43:13.349Z,25.30
2022-07-28T07:44:13.630Z,25.39
2022-07-28T07:45:13.358Z,25.39
2022-07-28T07:46:13.407Z,25.45
2022-07-28T07:47:13.361Z,25.50
2022-07-28T07:48:13.376Z,25.46
2022-07-28T07:49:13.423Z,25.55
2022-07-28T07:50:13.379Z,25.52
2022-07-28T07:51:15.568Z,25.46
2022-07-28T07:52:13.403Z,25.57
2022-07-28T07:53:13.368Z,25.57
2022-07-28T07:54:13.591Z,25.67
2022-07-28T07:55:13.372Z,25.67
2022-07-28T07:56:13.376Z,25.62
2022-07-28T07:57:13.373Z,25.64
2022-07-28T07:58:13.379Z,25.70
2022-07-28T07:59:13.386Z,25.76
2022-07-28T08:00:28.075Z,25.85
2022-07-28T08:01:13.383Z,25.79
2022-07-28T08:02:13.479Z,25.83
2022-07-28T08:03:13.395Z,25.82
2022-07-28T08:04:13.722Z,25.87
2022-07-28T08:05:13.391Z,25.94
2022-07-28T08:06:13.395Z,25.91
2022-07-28T08:07:13.398Z,25.95
2022-07-28T08:08:13.407Z,25.97
2022-07-28T08:09:13.399Z,25.97
2022-07-28T08:10:13.401Z,25.94
2022-07-28T08:11:13.411Z,26.05
2022-07-28T08:12:13.414Z,26.09
2022-07-28T08:13:13.404Z,25.97
2022-07-28T08:14:13.724Z,25.92
2022-07-28T08:15:13.413Z,25.97
2022-07-28T08:16:13.475Z,26.01
2022-07-28T08:17:13.420Z,26.15
2022-07-28T08:18:13.420Z,26.06
2022-07-28T08:19:13.422Z,26.09
2022-07-28T08:20:13.420Z,26.13
2022-07-28T08:21:13.425Z,26.09
2022-07-28T08:22:13.429Z,26.13
2022-07-28T08:23:13.439Z,26.21
2022-07-28T08:24:13.746Z,26.28
2022-07-28T08:25:13.434Z,26.29
2022-07-28T08:26:13.433Z,26.25
2022-07-28T08:27:13.442Z,26.33
2022-07-28T08:28:13.444Z,26.35
2022-07-28T08:29:13.446Z,26.37
2022-07-28T08:30:13.453Z,26.45
2022-07-28T08:31:13.478Z,26.45
2022-07-28T08:32:13.457Z,26.40
2022-07-28T08:33:13.462Z,26.52
2022-07-28T08:34:13.461Z,26.58
2022-07-28T08:35:32.317Z,26.54
2022-07-28T08:36:13.464Z,26.60
2022-07-28T08:37:13.464Z,26.60
2022-07-28T08:38:13.466Z,26.65
2022-07-28T08:39:13.465Z,26.77
2022-07-28T08:40:13.469Z,26.72
2022-07-28T08:41:13.487Z,26.75
2022-07-28T08:42:13.470Z,26.75
2022-07-28T08:43:13.466Z,26.76
2022-07-28T08:44:13.794Z,26.85
2022-07-28T08:45:13.477Z,26.84
2022-07-28T08:46:13.534Z,26.82
2022-07-28T08:47:13.506Z,26.92
2022-07-28T08:48:13.483Z,26.95
2022-07-28T08:49:14.833Z,26.97
2022-07-28T08:50:13.483Z,26.94
2022-07-28T08:51:13.498Z,26.92
2022-07-28T08:52:13.507Z,27.03
2022-07-28T08:53:13.498Z,27.00
2022-07-28T08:54:13.721Z,27.10
2022-07-28T08:55:19.114Z,27.13
2022-07-28T08:56:13.506Z,27.18
2022-07-28T08:57:13.510Z,27.17
2022-07-28T08:58:13.523Z,27.13
2022-07-28T08:59:13.515Z,27.22
2022-07-28T09:00:13.505Z,27.22
2022-07-28T09:01:13.510Z,27.28
2022-07-28T09:02:13.617Z,27.29
2022-07-28T09:03:13.656Z,27.22
2022-07-28T09:04:13.791Z,27.31
2022-07-28T09:05:13.517Z,27.19
2022-07-28T09:06:13.522Z,27.34
2022-07-28T09:07:13.533Z,27.29
2022-07-28T09:08:13.535Z,27.39
2022-07-28T09:09:13.542Z,27.32
2022-07-28T09:10:13.545Z,27.32
2022-07-28T09:11:13.539Z,27.29
2022-07-28T09:12:13.537Z,27.36
2022-07-28T09:13:13.696Z,27.25
2022-07-28T09:14:13.905Z,27.25
2022-07-28T09:15:13.551Z,27.19
2022-07-28T09:16:13.635Z,27.19
2022-07-28T09:17:13.547Z,27.17
2022-07-28T09:18:13.553Z,27.07
2022-07-28T09:19:13.550Z,27.02
2022-07-28T09:20:13.558Z,27.00
2022-07-28T09:21:13.559Z,27.02
2022-07-28T09:22:13.571Z,26.95
2022-07-28T09:23:43.309Z,26.97
2022-07-28T09:24:13.881Z,26.92
2022-07-28T09:25:13.564Z,26.80
2022-07-28T09:26:13.578Z,26.85
2022-07-28T09:27:13.585Z,26.87
2022-07-28T09:28:13.574Z,26.84
2022-07-28T09:29:13.580Z,26.82
2022-07-28T09:30:13.589Z,26.75
2022-07-28T09:31:13.640Z,26.80
2022-07-28T09:32:13.580Z,26.85
2022-07-28T09:33:41.984Z,26.77
2022-07-28T09:34:13.801Z,26.75
2022-07-28T09:35:13.587Z,26.75
2022-07-28T09:36:13.600Z,26.75
2022-07-28T09:37:13.597Z,26.67
2022-07-28T09:38:13.602Z,26.60
2022-07-28T09:39:13.600Z,26.65
2022-07-28T09:40:13.607Z,26.66
2022-07-28T09:41:13.610Z,26.66
2022-07-28T09:42:13.607Z,26.65
2022-07-28T09:43:13.614Z,26.65
2022-07-28T09:44:13.873Z,26.52
2022-07-28T09:45:22.887Z,26.67
2022-07-28T09:46:13.717Z,26.55
2022-07-28T09:47:13.883Z,26.58
2022-07-28T09:48:13.879Z,26.47
2022-07-28T09:49:13.760Z,26.50
2022-07-28T09:50:13.620Z,26.51
2022-07-28T09:51:13.634Z,26.54
2022-07-28T09:52:13.632Z,26.54
2022-07-28T09:53:13.621Z,26.47
2022-07-28T09:54:14.054Z,26.44
2022-07-28T09:55:13.634Z,26.44
2022-07-28T09:56:13.642Z,26.47
2022-07-28T09:57:13.640Z,26.45
2022-07-28T09:58:13.646Z,26.48
2022-07-28T09:59:14.980Z,26.43
2022-07-28T10:00:13.643Z,26.45
2022-07-28T10:01:13.722Z,26.44
2022-07-28T10:02:13.836Z,26.47
2022-07-28T10:03:13.782Z,26.37
2022-07-28T10:04:13.667Z,26.36
2022-07-28T10:05:13.646Z,26.37
2022-07-28T10:06:13.658Z,26.35
2022-07-28T10:07:13.660Z,26.40
2022-07-28T10:08:13.663Z,26.36
2022-07-28T10:09:13.676Z,26.40
2022-07-28T10:10:13.689Z,26.30
2022-07-28T10:11:13.670Z,26.36
2022-07-28T10:12:13.685Z,26.37
2022-07-28T10:13:13.663Z,26.30
2022-07-28T10:14:14.133Z,26.32
2022-07-28T10:15:13.683Z,26.30
2022-07-28T10:16:13.719Z,26.28
2022-07-28T10:17:13.675Z,26.33
2022-07-28T10:18:13.686Z,26.36
2022-07-28T10:19:13.700Z,26.33
2022-07-28T10:20:13.696Z,26.30
2022-07-28T10:21:13.685Z,26.26
2022-07-28T10:22:13.690Z,26.28
2022-07-28T10:23:13.694Z,26.35
2022-07-28T10:24:14.041Z,26.26
2022-07-28T10:25:13.694Z,26.33
2022-07-28T10:26:13.693Z,26.23
2022-07-28T10:27:13.698Z,26.23
2022-07-28T10:28:13.695Z,26.25
2022-07-28T10:29:13.696Z,26.23
2022-07-28T10:30:13.694Z,26.21
2022-07-28T10:31:13.742Z,26.21
2022-07-28T10:32:13.719Z,26.28
2022-07-28T10:33:13.705Z,26.26
2022-07-28T10:34:16.300Z,26.18
2022-07-28T10:35:13.701Z,26.26
2022-07-28T10:36:13.711Z,26.21
2022-07-28T10:37:13.714Z,26.23
2022-07-28T10:38:14.102Z,26.12
2022-07-28T10:39:13.714Z,26.28
2022-07-28T10:40:13.720Z,26.21
2022-07-28T10:41:13.718Z,26.20
2022-07-28T10:42:13.723Z,26.06
2022-07-28T10:43:13.738Z,26.10
2022-07-28T10:44:14.152Z,26.13
2022-07-28T10:45:13.734Z,26.12
2022-07-28T10:46:16.238Z,26.05
2022-07-28T10:47:18.312Z,26.15
2022-07-28T10:48:13.724Z,26.13
2022-07-28T10:49:13.779Z,26.12
2022-07-28T10:50:13.737Z,26.13
2022-07-28T10:51:13.743Z,26.09
2022-07-28T10:52:37.050Z,26.15
2022-07-28T10:53:13.737Z,26.12
2022-07-28T10:54:17.497Z,26.10
2022-07-28T10:55:13.734Z,26.06
2022-07-28T10:56:13.753Z,26.06
2022-07-28T10:57:13.745Z,25.98
2022-07-28T10:58:13.746Z,25.97
2022-07-28T10:59:13.747Z,26.15
2022-07-28T11:00:20.361Z,26.07
2022-07-28T11:01:32.418Z,25.97
2022-07-28T11:02:13.853Z,26.05
2022-07-28T11:03:14.382Z,25.98
2022-07-28T11:04:14.040Z,26.06
2022-07-28T11:05:13.761Z,26.01
2022-07-28T11:06:13.758Z,26.01
2022-07-28T11:07:13.765Z,26.02
2022-07-28T11:08:13.772Z,25.95
2022-07-28T11:09:13.765Z,25.99
2022-07-28T11:10:13.835Z,26.02
2022-07-28T11:11:13.766Z,26.01
2022-07-28T11:12:13.767Z,26.01
2022-07-28T11:13:14.298Z,25.97
2022-07-28T11:14:14.043Z,26.02
2022-07-28T11:15:15.719Z,25.95
2022-07-28T11:16:13.861Z,26.05
2022-07-28T11:17:13.829Z,25.94
2022-07-28T11:18:13.770Z,25.98
2022-07-28T11:19:36.655Z,26.06
2022-07-28T11:20:24.862Z,25.95
2022-07-28T11:21:16.548Z,25.98
2022-07-28T11:22:13.788Z,26.07
2022-07-28T11:23:13.784Z,26.07
2022-07-28T11:24:17.865Z,26.01
2022-07-28T11:25:19.233Z,25.99
2022-07-28T11:26:13.794Z,26.05
2022-07-28T11:27:13.795Z,25.95
2022-07-28T11:28:13.792Z,25.94
2022-07-28T11:29:13.801Z,26.01
2022-07-28T11:30:13.816Z,25.95
2022-07-28T11:31:13.912Z,25.92
2022-07-28T11:32:13.795Z,25.95
2022-07-28T11:33:13.805Z,25.92
2022-07-28T11:34:14.237Z,25.92
2022-07-28T11:35:13.805Z,25.95
2022-07-28T11:36:13.815Z,25.95
2022-07-28T11:37:15.068Z,25.94
2022-07-28T11:38:13.818Z,25.92
2022-07-28T11:39:13.825Z,25.91
2022-07-28T11:40:13.805Z,25.91
2022-07-28T11:41:13.812Z,25.97
2022-07-28T11:42:13.813Z,25.99
2022-07-28T11:43:13.819Z,25.97
2022-07-28T11:44:14.303Z,25.95
2022-07-28T11:45:13.826Z,25.95
2022-07-28T11:46:13.880Z,25.91
2022-07-28T11:47:13.817Z,25.97
2022-07-28T11:48:13.859Z,25.98
2022-07-28T11:49:14.773Z,25.97
2022-07-28T11:50:13.826Z,25.94
2022-07-28T11:51:13.860Z,25.97
2022-07-28T11:52:13.962Z,25.95
2022-07-28T11:53:13.834Z,25.97
2022-07-28T11:54:14.256Z,25.94
2022-07-28T11:55:13.857Z,25.94
2022-07-28T11:56:13.858Z,25.88
2022-07-28T11:57:13.962Z,25.94
2022-07-28T11:58:13.843Z,25.95
2022-07-28T11:59:13.954Z,25.91
2022-07-28T12:00:13.853Z,25.92
2022-07-28T12:01:18.061Z,25.91
2022-07-28T12:02:13.922Z,25.97
2022-07-28T12:03:13.843Z,25.94
2022-07-28T12:04:14.259Z,25.94
2022-07-28T12:05:13.986Z,25.91
2022-07-28T12:06:13.853Z,25.88
2022-07-28T12:07:13.869Z,25.91
2022-07-28T12:08:13.859Z,25.91
2022-07-28T12:09:13.902Z,25.88
2022-07-28T12:10:25.998Z,25.88
2022-07-28T12:11:13.856Z,25.92
2022-07-28T12:12:13.857Z,25.91
2022-07-28T12:13:13.867Z,25.91
2022-07-28T12:14:14.251Z,25.91
2022-07-28T12:15:13.877Z,25.90
2022-07-28T12:16:13.944Z,25.87
2022-07-28T12:17:13.929Z,25.91
2022-07-28T12:18:14.394Z,25.90
2022-07-28T12:19:13.953Z,25.83
2022-07-28T12:20:14.167Z,25.88
2022-07-28T12:21:13.866Z,25.90
2022-07-28T12:22:15.899Z,25.87
2022-07-28T12:23:13.882Z,25.88
2022-07-28T12:24:14.055Z,25.82
2022-07-28T12:25:14.063Z,25.91
2022-07-28T12:26:13.890Z,25.87
2022-07-28T12:27:15.199Z,25.83
2022-07-28T12:28:13.883Z,25.82
2022-07-28T12:29:13.953Z,25.83
2022-07-28T12:30:13.899Z,25.83
2022-07-28T12:31:13.894Z,25.87
2022-07-28T12:32:13.947Z,25.87
2022-07-28T12:33:13.889Z,25.83
2022-07-28T12:34:14.154Z,25.83
2022-07-28T12:35:13.913Z,25.87
2022-07-28T12:36:13.893Z,25.88
2022-07-28T12:37:13.899Z,25.85
2022-07-28T12:38:13.901Z,25.82
2022-07-28T12:39:13.902Z,25.80
2022-07-28T12:40:13.906Z,25.82
2022-07-28T12:41:13.901Z,25.80
2022-07-28T12:42:13.906Z,25.87
2022-07-28T12:43:13.913Z,25.83
2022-07-28T12:44:14.304Z,25.85
2022-07-28T12:45:13.905Z,25.90
2022-07-28T12:46:13.975Z,25.88
2022-07-28T12:47:13.906Z,25.80
2022-07-28T12:48:13.909Z,25.80
2022-07-28T12:49:14.014Z,25.87
2022-07-28T12:50:13.920Z,25.83
2022-07-28T12:51:13.934Z,25.85
2022-07-28T12:52:13.922Z,25.85
2022-07-28T12:53:13.947Z,25.82
2022-07-28T12:54:14.346Z,25.88